Time;durP1;ratioP1;P1;durP2;ratioP2;P2;SDS_P1;SDS_P2;PMS_P1;PMS_P2;Temp;Humidity;BMP_temperature;BMP_pressure;BME280_temperature;BME280_humidity;BME280_pressure;Samples;Min_cycle;Max_cycle;Signal;HPM_P1;HPM_P2
2022/04/09 00:00:02;;;;;;;1.45;0.90;;;19.50;72.50;;;;;;7903155;28;20180;-52
2022/04/09 00:03:47;;;;;;;1.15;0.90;;;19.40;72.40;;;;;;7903157;28;20204;-52
2022/04/09 00:07:33;;;;;;;1.40;0.80;;;19.40;73.30;;;;;;7903127;28;20188;-53
2022/04/09 00:11:18;;;;;;;2.55;0.90;;;19.40;72.30;;;;;;7901693;28;20184;-53
2022/04/09 00:15:05;;;;;;;0.85;0.77;;;19.40;72.30;;;;;;7902901;28;20205;-53
2022/04/09 00:18:51;;;;;;;0.93;0.85;;;19.30;72.30;;;;;;7903035;28;20172;-52
2022/04/09 00:22:38;;;;;;;2.97;1.02;;;19.30;72.20;;;;;;7902756;28;20200;-52
2022/04/09 00:26:24;;;;;;;1.20;0.80;;;19.30;72.10;;;;;;7902842;28;20192;-53
2022/04/09 00:30:09;;;;;;;2.63;1.00;;;19.30;72.10;;;;;;7902628;28;20314;-51
2022/04/09 00:33:55;;;;;;;1.25;0.70;;;19.30;71.80;;;;;;7902626;28;20209;-52
2022/04/09 00:37:47;;;;;;;1.27;0.80;;;19.20;72.10;;;;;;7902303;28;20304;-53
2022/04/09 00:41:33;;;;;;;2.25;0.70;;;19.20;72.10;;;;;;7901945;28;20260;-53
2022/04/09 00:45:18;;;;;;;0.90;0.90;;;19.20;72.10;;;;;;7901988;28;20199;-54
2022/04/09 00:49:04;;;;;;;1.55;1.17;;;19.20;72.00;;;;;;7901362;28;20188;-53
2022/04/09 00:52:52;;;;;;;1.20;0.93;;;19.10;71.90;;;;;;7901567;28;20228;-53
2022/04/09 00:56:39;;;;;;;1.67;0.90;;;19.10;71.80;;;;;;7901402;28;20248;-53
2022/04/09 01:00:24;;;;;;;0.70;0.70;;;19.10;71.90;;;;;;7901214;28;20173;-53
2022/04/09 01:04:11;;;;;;;3.13;0.70;;;19.10;71.80;;;;;;7901381;28;20288;-53
2022/04/09 01:07:57;;;;;;;1.77;0.80;;;19.10;71.80;;;;;;7901320;28;20655;-53
2022/04/09 01:11:43;;;;;;;0.95;0.82;;;19.10;71.80;;;;;;7901091;28;20176;-56
2022/04/09 01:15:28;;;;;;;1.02;0.80;;;19.00;72.50;;;;;;7900987;28;20288;-53
2022/04/09 01:19:14;;;;;;;1.35;0.80;;;19.00;71.60;;;;;;7900792;28;20164;-53
2022/04/09 01:22:59;;;;;;;0.80;0.80;;;19.00;71.70;;;;;;7900622;28;20165;-53
2022/04/09 01:26:45;;;;;;;1.27;0.63;;;18.90;71.50;;;;;;7900756;28;20216;-53
2022/04/09 01:30:31;;;;;;;1.17;0.70;;;19.00;71.70;;;;;;7900671;28;20180;-53
2022/04/09 01:34:16;;;;;;;1.10;0.90;;;19.00;71.70;;;;;;7900614;28;20253;-54
2022/04/09 01:38:02;;;;;;;1.25;0.60;;;18.90;71.50;;;;;;7900717;28;20216;-54
2022/04/09 01:41:47;;;;;;;1.00;0.85;;;18.90;71.50;;;;;;7900415;28;20207;-54
2022/04/09 01:45:33;;;;;;;1.33;0.70;;;18.90;71.50;;;;;;7900364;28;20197;-53
2022/04/09 01:49:19;;;;;;;0.63;0.57;;;18.90;71.50;;;;;;7900750;28;20612;-52
2022/04/09 01:53:04;;;;;;;0.77;0.60;;;18.90;71.60;;;;;;7900621;28;20192;-53
2022/04/09 01:56:50;;;;;;;1.52;0.88;;;18.80;71.40;;;;;;7900466;28;20298;-53
2022/04/09 02:00:35;;;;;;;1.63;0.63;;;18.80;71.50;;;;;;7900251;28;20185;-51
2022/04/09 02:04:21;;;;;;;0.70;0.70;;;18.80;71.40;;;;;;7900386;28;20196;-52
2022/04/09 02:08:07;;;;;;;0.77;0.70;;;18.80;71.40;;;;;;7900573;28;20580;-51
2022/04/09 02:11:52;;;;;;;0.73;0.65;;;18.80;71.40;;;;;;7900035;28;20188;-52
2022/04/09 02:15:38;;;;;;;0.88;0.88;;;18.80;71.40;;;;;;7900029;28;20287;-53
2022/04/09 02:19:23;;;;;;;0.65;0.65;;;18.70;71.30;;;;;;7899882;28;20610;-53
2022/04/09 02:23:09;;;;;;;1.00;0.68;;;18.70;71.40;;;;;;7900086;28;20626;-52
2022/04/09 02:26:54;;;;;;;3.08;0.73;;;18.70;71.30;;;;;;7900020;28;20227;-52
2022/04/09 02:30:40;;;;;;;1.27;0.77;;;18.70;71.30;;;;;;7899597;28;20181;-52
2022/04/09 02:34:26;;;;;;;0.80;0.60;;;18.70;71.30;;;;;;7902163;28;20565;-53
2022/04/09 02:38:11;;;;;;;0.52;0.52;;;18.70;71.30;;;;;;7905712;28;20250;-54
2022/04/09 02:41:57;;;;;;;1.05;0.50;;;18.60;71.30;;;;;;7905578;28;20180;-53
2022/04/09 02:45:42;;;;;;;0.95;0.68;;;18.60;71.20;;;;;;7905522;28;20201;-54
2022/04/09 02:49:28;;;;;;;1.15;0.63;;;18.60;71.20;;;;;;7905393;28;20267;-53
2022/04/09 02:53:13;;;;;;;0.70;0.70;;;18.60;71.20;;;;;;7905347;28;20184;-52
2022/04/09 02:56:59;;;;;;;1.58;0.50;;;18.60;71.20;;;;;;7905077;28;20852;-54
2022/04/09 03:00:44;;;;;;;0.75;0.75;;;18.60;71.20;;;;;;7904615;28;20192;-52
2022/04/09 03:04:29;;;;;;;0.65;0.60;;;18.60;71.00;;;;;;7904944;28;20254;-53
2022/04/09 03:08:15;;;;;;;0.63;0.60;;;18.60;71.20;;;;;;7904969;28;20669;-53
2022/04/09 03:12:00;;;;;;;0.60;0.60;;;18.50;71.10;;;;;;7904551;28;20184;-52
2022/04/09 03:15:46;;;;;;;0.93;0.80;;;18.50;70.80;;;;;;7904561;28;20603;-53
2022/04/09 03:19:31;;;;;;;0.70;0.70;;;18.50;70.80;;;;;;7904357;28;20172;-53
2022/04/09 03:23:17;;;;;;;0.70;0.70;;;18.50;70.40;;;;;;7904470;28;20179;-52
2022/04/09 03:27:03;;;;;;;0.60;0.60;;;18.50;70.30;;;;;;7904474;28;20271;-53
2022/04/09 03:30:48;;;;;;;0.88;0.60;;;18.40;70.50;;;;;;7904121;28;20208;-53
2022/04/09 03:34:34;;;;;;;1.48;0.85;;;18.40;70.70;;;;;;7904203;28;20200;-54
2022/04/09 03:38:20;;;;;;;0.77;0.60;;;18.40;70.80;;;;;;7904629;28;20205;-55
2022/04/09 03:42:05;;;;;;;0.70;0.70;;;18.40;70.80;;;;;;7920101;28;20713;-53
2022/04/09 03:45:51;;;;;;;1.98;0.88;;;18.40;70.70;;;;;;7935346;28;20196;-50
2022/04/09 03:49:36;;;;;;;2.75;0.88;;;18.30;70.80;;;;;;7935112;28;20276;-53
2022/04/09 03:53:22;;;;;;;6.50;0.80;;;18.40;70.80;;;;;;7935368;28;20251;-49
2022/04/09 03:57:09;;;;;;;2.35;0.80;;;18.40;70.50;;;;;;7935043;28;20736;-50
2022/04/09 04:00:54;;;;;;;1.23;1.13;;;18.40;70.50;;;;;;7934639;28;20163;-53
2022/04/09 04:04:40;;;;;;;10.50;1.30;;;18.30;69.80;;;;;;7934921;28;20207;-49
2022/04/09 04:08:25;;;;;;;4.70;0.95;;;18.40;69.90;;;;;;7934697;28;20660;-50
2022/04/09 04:12:11;;;;;;;5.75;1.40;;;18.30;70.10;;;;;;7934263;28;20543;-52
2022/04/09 04:15:56;;;;;;;3.25;1.83;;;18.30;69.50;;;;;;7934298;28;20260;-50
2022/04/09 04:19:42;;;;;;;1.67;1.10;;;18.30;69.40;;;;;;7934213;28;20207;-50
2022/04/09 04:23:27;;;;;;;1.60;1.30;;;18.30;70.00;;;;;;7934249;28;20220;-52
2022/04/09 04:27:13;;;;;;;1.40;1.00;;;18.40;69.00;;;;;;7933978;28;20176;-52
2022/04/09 04:30:58;;;;;;;2.70;1.30;;;18.40;69.30;;;;;;7933641;28;20767;-50
2022/04/09 04:34:44;;;;;;;3.63;1.83;;;18.50;69.00;;;;;;7933769;28;20199;-49
2022/04/09 04:38:29;;;;;;;2.33;1.77;;;18.50;68.30;;;;;;7933605;28;20211;-50
2022/04/09 04:42:15;;;;;;;2.38;1.80;;;18.60;68.40;;;;;;7933366;28;20172;-52
2022/04/09 04:46:00;;;;;;;2.22;1.75;;;18.60;67.80;;;;;;7933318;28;20245;-50
2022/04/09 04:49:46;;;;;;;3.15;1.90;;;18.60;67.50;;;;;;7933087;28;20222;-50
2022/04/09 04:53:31;;;;;;;1.67;1.52;;;18.70;67.30;;;;;;7933151;28;20207;-50
2022/04/09 04:57:17;;;;;;;2.25;1.48;;;18.80;67.30;;;;;;7932472;28;20644;-50
2022/04/09 05:01:03;;;;;;;3.15;1.77;;;18.80;67.00;;;;;;7932867;28;20175;-50
2022/04/09 05:04:48;;;;;;;6.30;1.75;;;18.90;66.70;;;;;;7932735;28;20191;-50
2022/04/09 05:08:34;;;;;;;2.90;1.90;;;19.00;66.80;;;;;;7921724;28;20725;-50
2022/04/09 05:12:19;;;;;;;2.25;1.60;;;19.00;66.50;;;;;;7922193;28;20196;-53
2022/04/09 05:16:05;;;;;;;4.60;1.65;;;19.00;66.20;;;;;;7900822;28;20239;-50
2022/04/09 05:19:50;;;;;;;4.55;1.90;;;19.10;66.10;;;;;;7901077;28;20191;-53
2022/04/09 05:23:36;;;;;;;3.83;1.60;;;19.10;65.90;;;;;;7901206;28;20268;-50
2022/04/09 05:27:22;;;;;;;4.78;1.50;;;19.10;65.80;;;;;;7900992;28;20537;-50
2022/04/09 05:31:09;;;;;;;7.22;2.17;;;19.20;65.60;;;;;;7900463;28;20276;-50
2022/04/09 05:34:54;;;;;;;5.13;2.13;;;19.20;65.50;;;;;;7900627;28;20193;-50
2022/04/09 05:38:40;;;;;;;4.57;1.55;;;19.30;65.40;;;;;;7917060;28;20207;-52
2022/04/09 05:42:26;;;;;;;4.55;1.75;;;19.30;65.80;;;;;;7932065;28;20164;-53
2022/04/09 05:46:11;;;;;;;5.18;1.50;;;19.30;65.20;;;;;;7931934;28;20262;-50
2022/04/09 05:49:58;;;;;;;4.78;1.55;;;19.40;65.10;;;;;;7931634;28;20565;-52
2022/04/09 05:53:43;;;;;;;13.07;1.85;;;19.40;65.00;;;;;;7931893;28;20222;-52
2022/04/09 05:57:33;;;;;;;6.43;1.73;;;19.40;64.90;;;;;;7932042;28;20199;-50
2022/04/09 06:01:19;;;;;;;18.48;5.35;;;19.50;65.10;;;;;;7930563;28;20275;-50
2022/04/09 06:05:05;;;;;;;12.20;5.18;;;19.50;65.70;;;;;;7905457;28;20196;-50
2022/04/09 06:08:52;;;;;;;10.95;5.55;;;19.50;64.80;;;;;;7903153;28;20183;-53
2022/04/09 06:12:38;;;;;;;26.27;10.10;;;19.60;64.70;;;;;;7906373;28;20188;-52
2022/04/09 06:16:23;;;;;;;28.50;8.88;;;19.60;64.80;;;;;;7906236;28;20702;-51
2022/04/09 06:20:09;;;;;;;15.48;6.57;;;19.60;64.90;;;;;;7906008;28;20180;-50
2022/04/09 06:23:56;;;;;;;14.57;5.65;;;19.60;64.20;;;;;;7905963;28;20200;-50
2022/04/09 06:27:42;;;;;;;14.57;5.97;;;19.70;64.10;;;;;;7905579;28;20177;-52
2022/04/09 06:31:27;;;;;;;9.35;4.90;;;19.70;64.20;;;;;;7905698;28;20184;-50
2022/04/09 06:35:13;;;;;;;10.60;4.40;;;19.70;64.10;;;;;;7905758;28;20199;-50
2022/04/09 06:38:58;;;;;;;9.57;3.83;;;19.70;63.90;;;;;;7905914;28;20208;-52
2022/04/09 06:42:44;;;;;;;7.93;3.25;;;19.80;63.80;;;;;;7905565;28;20183;-49
2022/04/09 06:46:29;;;;;;;5.90;2.85;;;19.80;63.60;;;;;;7905552;28;20212;-50
2022/04/09 06:50:15;;;;;;;7.68;3.08;;;19.80;63.50;;;;;;7905728;28;20196;-54
2022/04/09 06:54:00;;;;;;;8.85;3.35;;;19.80;63.40;;;;;;7905614;28;20208;-50
2022/04/09 06:57:45;;;;;;;5.57;2.33;;;19.90;63.50;;;;;;7905370;28;20293;-50
2022/04/09 07:01:31;;;;;;;9.68;2.33;;;19.90;63.30;;;;;;7904917;28;20172;-53
2022/04/09 07:05:16;;;;;;;6.15;2.17;;;19.90;63.20;;;;;;7904891;28;20192;-50
2022/04/09 07:09:02;;;;;;;5.88;2.30;;;19.90;63.20;;;;;;7917821;28;20586;-51
2022/04/09 07:12:47;;;;;;;5.95;2.22;;;20.00;63.10;;;;;;7936336;28;20183;-51
2022/04/09 07:16:33;;;;;;;4.50;1.70;;;20.00;63.10;;;;;;7935980;28;20199;-50
2022/04/09 07:20:19;;;;;;;6.07;1.98;;;20.00;62.80;;;;;;7935386;28;20852;-50
2022/04/09 07:24:04;;;;;;;4.28;1.80;;;20.00;62.70;;;;;;7935836;28;20192;-51
2022/04/09 07:27:50;;;;;;;5.30;2.05;;;20.00;63.60;;;;;;7936068;28;20817;-50
2022/04/09 07:31:35;;;;;;;5.13;1.70;;;20.00;62.50;;;;;;7935632;28;20589;-53
2022/04/09 07:35:21;;;;;;;5.07;1.83;;;20.00;62.50;;;;;;7935696;28;20188;-51
2022/04/09 07:39:06;;;;;;;2.78;1.55;;;20.10;62.50;;;;;;7935482;28;20164;-50
2022/04/09 07:42:53;;;;;;;4.88;1.60;;;20.10;62.40;;;;;;7908547;28;20189;-53
2022/04/09 07:46:38;;;;;;;4.68;1.42;;;20.10;62.30;;;;;;7903138;28;20201;-52
2022/04/09 07:50:25;;;;;;;3.45;1.70;;;20.10;62.40;;;;;;7926361;28;20684;-53
2022/04/09 07:54:11;;;;;;;4.47;1.60;;;20.10;62.30;;;;;;7935027;28;20210;-51
2022/04/09 07:57:56;;;;;;;2.45;1.40;;;20.20;62.40;;;;;;7923671;28;20208;-53
2022/04/09 08:01:42;;;;;;;5.75;1.77;;;20.20;62.30;;;;;;7903120;28;20742;-50
2022/04/09 08:05:27;;;;;;;3.42;1.33;;;20.20;62.40;;;;;;7903271;28;20207;-50
2022/04/09 08:09:13;;;;;;;3.80;1.60;;;20.20;62.20;;;;;;7922212;28;20187;-52
2022/04/09 08:12:58;;;;;;;4.68;1.48;;;20.20;62.10;;;;;;7935115;28;20176;-49
2022/04/09 08:16:44;;;;;;;2.40;1.30;;;20.30;62.40;;;;;;7934823;28;20283;-50
2022/04/09 08:20:30;;;;;;;4.70;1.92;;;20.30;62.30;;;;;;7902621;28;20188;-54
2022/04/09 08:24:15;;;;;;;12.93;2.35;;;20.30;62.30;;;;;;7911532;28;20204;-52
2022/04/09 08:28:02;;;;;;;9.25;1.90;;;20.30;62.10;;;;;;7907743;28;20172;-53
2022/04/09 08:31:47;;;;;;;5.78;2.13;;;20.30;62.10;;;;;;7904139;28;20188;-50
2022/04/09 08:35:33;;;;;;;5.75;1.80;;;20.40;62.10;;;;;;7904312;28;20263;-50
2022/04/09 08:39:19;;;;;;;4.90;2.45;;;20.40;62.20;;;;;;7901902;28;20173;-50
2022/04/09 08:43:05;;;;;;;5.47;2.40;;;20.40;62.10;;;;;;7901940;28;20179;-50
2022/04/09 08:46:53;;;;;;;6.43;3.17;;;20.40;62.00;;;;;;7903123;28;20203;-52
2022/04/09 08:50:42;;;;;;;7.53;3.53;;;20.40;61.90;;;;;;7910925;28;20291;-50
2022/04/09 08:54:37;;;;;;;6.18;4.03;;;20.40;61.80;;;;;;7927771;27;20556;-52
2022/04/09 08:58:22;;;;;;;12.07;4.93;;;20.50;61.70;;;;;;7899151;28;20258;-49
2022/04/09 09:02:08;;;;;;;5.68;3.97;;;20.40;61.50;;;;;;7864581;28;20174;-51
2022/04/09 09:05:53;;;;;;;9.02;4.40;;;20.40;61.80;;;;;;7864688;28;20224;-51
2022/04/09 09:09:39;;;;;;;5.78;4.00;;;20.50;61.70;;;;;;7864373;28;20183;-51
2022/04/09 09:13:24;;;;;;;6.13;4.03;;;20.50;61.70;;;;;;7864382;28;20244;-51
2022/04/09 09:17:11;;;;;;;6.32;3.60;;;20.50;61.60;;;;;;7873115;28;20189;-49
2022/04/09 09:20:59;;;;;;;6.28;3.70;;;20.50;61.70;;;;;;7864044;28;20190;-52
2022/04/09 09:25:02;;;;;;;4.32;3.33;;;20.50;61.80;;;;;;7870218;28;20221;-52
2022/04/09 09:28:55;;;;;;;5.60;3.70;;;20.50;61.80;;;;;;7875415;28;20189;-50
2022/04/09 09:32:41;;;;;;;12.80;4.13;;;20.50;61.60;;;;;;7895312;28;20219;-54
2022/04/09 09:36:33;;;;;;;7.95;4.63;;;20.60;62.20;;;;;;7912958;28;20695;-50
2022/04/09 09:40:32;;;;;;;8.73;5.72;;;20.50;62.00;;;;;;7896449;28;20650;-54
2022/04/09 09:44:19;;;;;;;7.00;5.00;;;20.50;61.90;;;;;;7898803;28;20196;-55
2022/04/09 09:48:05;;;;;;;8.00;4.50;;;20.60;61.90;;;;;;7905814;28;20271;-55
2022/04/09 09:52:08;;;;;;;6.35;4.68;;;20.60;61.90;;;;;;7894229;28;20215;-53
2022/04/09 09:55:56;;;;;;;7.70;4.25;;;20.60;61.70;;;;;;7894593;28;20201;-54
2022/04/09 09:59:41;;;;;;;6.00;3.75;;;20.60;61.50;;;;;;7893971;28;20188;-56
2022/04/09 10:03:27;;;;;;;4.97;3.38;;;20.60;61.50;;;;;;7887370;28;20215;-53
2022/04/09 10:07:16;;;;;;;7.68;3.13;;;20.60;61.70;;;;;;7873427;28;20651;-52
2022/04/09 10:11:02;;;;;;;4.47;3.40;;;20.60;61.50;;;;;;7872959;28;20185;-53
2022/04/09 10:14:57;;;;;;;5.45;3.70;;;20.60;61.50;;;;;;7886469;28;20702;-53
2022/04/09 10:18:42;;;;;;;6.57;4.07;;;20.60;61.40;;;;;;7856691;28;20542;-51
2022/04/09 10:22:42;;;;;;;8.25;4.00;;;20.70;61.60;;;;;;7841737;28;20546;-52
2022/04/09 10:26:28;;;;;;;7.75;4.07;;;20.70;61.90;;;;;;7843524;28;20289;-55
2022/04/09 10:30:18;;;;;;;6.15;2.80;;;20.70;61.70;;;;;;7867727;28;20212;-53
2022/04/09 10:34:05;;;;;;;11.82;4.60;;;20.70;60.10;;;;;;7903787;28;20682;-52
2022/04/09 10:38:09;;;;;;;16.92;5.28;;;20.60;61.60;;;;;;7895448;28;20176;-53
2022/04/09 10:41:56;;;;;;;13.55;6.00;;;20.60;62.10;;;;;;7848180;28;20195;-52
2022/04/09 10:46:00;;;;;;;8.32;5.82;;;20.70;61.70;;;;;;7869462;28;20695;-52
2022/04/09 10:50:08;;;;;;;12.48;5.05;;;20.70;61.80;;;;;;7840091;28;20190;-53
2022/04/09 10:53:54;;;;;;;12.25;4.63;;;20.70;61.80;;;;;;7854697;28;20274;-52
2022/04/09 10:57:51;;;;;;;12.20;4.70;;;20.70;61.70;;;;;;7868575;28;20983;-53
2022/04/09 11:01:46;;;;;;;11.25;4.03;;;20.70;61.80;;;;;;7863691;28;20189;-51
2022/04/09 11:05:33;;;;;;;8.82;4.10;;;20.70;61.70;;;;;;7870277;28;20236;-53
2022/04/09 11:09:19;;;;;;;8.80;4.20;;;20.70;61.90;;;;;;7865930;28;20561;-53
2022/04/09 11:13:10;;;;;;;5.55;3.63;;;20.80;61.90;;;;;;7896374;28;20204;-53
2022/04/09 11:16:58;;;;;;;6.13;3.30;;;20.80;62.10;;;;;;7900915;28;20193;-53
2022/04/09 11:20:45;;;;;;;3.83;2.70;;;20.80;62.10;;;;;;7877051;28;20185;-51
2022/04/09 11:24:38;;;;;;;4.07;2.70;;;20.80;62.00;;;;;;7838986;28;20817;-52
2022/04/09 11:28:23;;;;;;;3.58;2.55;;;20.80;61.80;;;;;;7856476;28;20196;-53
2022/04/09 11:32:19;;;;;;;4.13;2.20;;;20.80;61.90;;;;;;7865019;28;20241;-54
2022/04/09 11:36:05;;;;;;;3.75;2.30;;;20.80;62.10;;;;;;7873601;28;20292;-53
2022/04/09 11:39:51;;;;;;;5.25;2.03;;;20.80;62.10;;;;;;7869389;28;20677;-55
2022/04/09 11:43:46;;;;;;;3.75;2.13;;;20.80;62.00;;;;;;7859659;28;20185;-53
2022/04/09 11:47:32;;;;;;;3.30;2.13;;;20.80;62.10;;;;;;7877102;28;20793;-54
2022/04/09 11:51:20;;;;;;;3.63;1.85;;;20.90;62.00;;;;;;7900626;28;20235;-55
2022/04/09 11:55:10;;;;;;;4.53;1.85;;;20.80;61.90;;;;;;7845319;28;20198;-53
2022/04/09 11:58:56;;;;;;;3.90;1.70;;;20.90;62.10;;;;;;7866871;28;20197;-53
2022/04/09 12:02:41;;;;;;;4.38;1.80;;;20.90;62.00;;;;;;7868623;28;20219;-53
2022/04/09 12:06:27;;;;;;;2.15;1.63;;;20.90;62.00;;;;;;7866125;28;20224;-53
2022/04/09 12:10:29;;;;;;;7.53;1.73;;;20.90;62.00;;;;;;7838303;28;20170;-52
2022/04/09 12:14:16;;;;;;;2.50;1.52;;;20.90;62.20;;;;;;7862766;28;20217;-53
2022/04/09 12:18:06;;;;;;;3.40;1.85;;;20.80;60.80;;;;;;7860512;28;20173;-53
2022/04/09 12:21:52;;;;;;;7.20;1.75;;;20.80;60.90;;;;;;7839736;28;20185;-51
2022/04/09 12:25:43;;;;;;;2.72;1.80;;;20.80;61.10;;;;;;7837426;28;20212;-54
2022/04/09 12:29:29;;;;;;;8.10;1.58;;;20.90;61.40;;;;;;7864219;28;20189;-53
2022/04/09 12:33:15;;;;;;;4.22;1.80;;;20.90;61.50;;;;;;7847576;28;20212;-52
2022/04/09 12:37:05;;;;;;;4.00;1.67;;;20.90;61.80;;;;;;7870941;28;20189;-52
2022/04/09 12:40:58;;;;;;;3.83;1.90;;;20.90;62.00;;;;;;7872950;28;20185;-52
2022/04/09 12:44:44;;;;;;;7.85;1.98;;;20.90;62.40;;;;;;7874519;28;20205;-51
2022/04/09 12:48:59;;;;;;;4.28;2.30;;;20.90;62.30;;;;;;7867305;28;20185;-51
2022/04/09 12:52:45;;;;;;;13.88;3.13;;;20.90;62.30;;;;;;7867392;28;20714;-53
2022/04/09 12:56:31;;;;;;;8.50;2.35;;;20.90;62.80;;;;;;7874378;28;20652;-52
2022/04/09 13:00:17;;;;;;;24.10;2.60;;;20.90;62.30;;;;;;7868827;28;20211;-52
2022/04/09 13:04:03;;;;;;;4.53;2.00;;;20.90;62.30;;;;;;7900719;28;20214;-52
2022/04/09 13:07:48;;;;;;;3.95;2.20;;;20.90;62.40;;;;;;7862992;28;20190;-52
2022/04/09 13:11:34;;;;;;;5.00;1.85;;;21.00;62.40;;;;;;7861476;28;20208;-52
2022/04/09 13:15:19;;;;;;;8.88;1.90;;;21.00;62.30;;;;;;7868865;28;20298;-52
2022/04/09 13:19:05;;;;;;;8.85;1.80;;;21.00;62.40;;;;;;7867938;28;20240;-52
2022/04/09 13:22:50;;;;;;;5.75;1.65;;;20.90;62.10;;;;;;7868563;28;20667;-53
2022/04/09 13:26:36;;;;;;;3.40;1.45;;;21.00;62.30;;;;;;7868484;28;20623;-52
2022/04/09 13:30:25;;;;;;;4.25;1.55;;;21.00;62.10;;;;;;7838306;28;20273;-53
2022/04/09 13:34:14;;;;;;;1.92;1.40;;;21.00;62.40;;;;;;7837084;28;20592;-53
2022/04/09 13:38:00;;;;;;;1.50;1.25;;;21.00;62.00;;;;;;7841900;28;20705;-50
2022/04/09 13:41:45;;;;;;;2.70;1.48;;;21.00;61.90;;;;;;7873846;28;20620;-52
2022/04/09 13:45:31;;;;;;;2.30;1.30;;;21.00;62.00;;;;;;7873899;28;20232;-54
2022/04/09 13:49:16;;;;;;;6.35;1.50;;;21.00;61.90;;;;;;7873466;28;20250;-52
2022/04/09 13:53:02;;;;;;;4.03;1.45;;;21.00;62.30;;;;;;7873326;28;20227;-53
2022/04/09 13:56:47;;;;;;;4.40;1.10;;;21.00;62.30;;;;;;7873654;28;20212;-53
2022/04/09 14:00:33;;;;;;;4.85;1.50;;;20.90;62.00;;;;;;7873231;28;20215;-53
2022/04/09 14:04:19;;;;;;;3.20;1.30;;;21.00;61.90;;;;;;7883871;28;20209;-54
2022/04/09 14:08:05;;;;;;;2.88;1.42;;;21.00;62.00;;;;;;7891084;28;20193;-53
2022/04/09 14:11:50;;;;;;;2.75;1.33;;;21.00;61.80;;;;;;7862648;28;20213;-52
2022/04/09 14:15:36;;;;;;;11.93;1.58;;;21.00;62.30;;;;;;7891613;28;20678;-53
2022/04/09 14:19:22;;;;;;;5.53;1.10;;;21.00;62.10;;;;;;7873507;28;20180;-52
2022/04/09 14:23:08;;;;;;;5.03;1.83;;;21.00;62.00;;;;;;7863908;28;20209;-53
2022/04/09 14:26:53;;;;;;;4.43;1.33;;;21.00;61.80;;;;;;7867032;28;20282;-52
2022/04/09 14:30:41;;;;;;;16.67;1.75;;;21.00;61.80;;;;;;7872059;28;20185;-52
2022/04/09 14:34:27;;;;;;;1.95;1.30;;;21.00;62.10;;;;;;7871828;28;20241;-52
2022/04/09 14:38:12;;;;;;;4.72;1.40;;;20.90;61.80;;;;;;7871633;28;20188;-52
2022/04/09 14:41:58;;;;;;;2.88;2.53;;;21.00;61.90;;;;;;7871172;28;20238;-53
2022/04/09 14:45:43;;;;;;;15.82;3.72;;;20.90;62.20;;;;;;7855821;28;20227;-52
2022/04/09 14:49:29;;;;;;;8.48;3.58;;;20.90;62.40;;;;;;7879729;28;20611;-53
2022/04/09 14:53:14;;;;;;;9.00;3.65;;;20.90;62.30;;;;;;7852248;28;20237;-53
2022/04/09 14:57:00;;;;;;;7.85;3.53;;;20.90;62.20;;;;;;7859991;28;20201;-53
2022/04/09 15:00:45;;;;;;;13.55;3.00;;;21.00;62.60;;;;;;7891644;28;20181;-53
2022/04/09 15:04:31;;;;;;;4.68;2.80;;;20.90;62.30;;;;;;7860046;28;20695;-53
2022/04/09 15:08:16;;;;;;;9.18;2.92;;;20.90;62.30;;;;;;7839983;28;20311;-55
2022/04/09 15:12:08;;;;;;;3.88;2.30;;;20.90;62.20;;;;;;7839503;28;20201;-51
2022/04/09 15:15:54;;;;;;;10.00;2.60;;;20.90;62.20;;;;;;7863853;28;20209;-53
2022/04/09 15:19:39;;;;;;;10.05;3.95;;;20.90;62.70;;;;;;7870163;28;20260;-52
2022/04/09 15:23:24;;;;;;;13.90;5.00;;;21.00;62.80;;;;;;7897484;28;20192;-52
2022/04/09 15:27:12;;;;;;;8.73;4.47;;;20.90;61.50;;;;;;7889799;28;20606;-52
2022/04/09 15:30:58;;;;;;;10.02;3.97;;;20.80;60.60;;;;;;7848819;28;20236;-52
2022/04/09 15:34:44;;;;;;;7.03;3.50;;;20.80;60.20;;;;;;7865094;28;20303;-53
2022/04/09 15:38:30;;;;;;;11.75;2.95;;;20.70;59.60;;;;;;7892576;28;20200;-54
2022/04/09 15:42:16;;;;;;;4.75;4.15;;;20.70;60.50;;;;;;7884449;28;20703;-53
2022/04/09 15:46:02;;;;;;;9.48;5.57;;;20.60;61.20;;;;;;7868733;28;20274;-53
2022/04/09 15:49:48;;;;;;;6.70;4.88;;;20.70;62.10;;;;;;7864376;28;20588;-54
2022/04/09 15:53:33;;;;;;;6.25;3.20;;;20.70;62.10;;;;;;7854136;28;20209;-53
2022/04/09 15:57:19;;;;;;;4.60;3.28;;;20.70;62.00;;;;;;7838151;28;20166;-53
2022/04/09 16:01:04;;;;;;;6.05;2.55;;;20.80;61.80;;;;;;7837583;28;20261;-52
2022/04/09 16:04:50;;;;;;;4.85;2.17;;;20.80;62.10;;;;;;7852006;28;20205;-54
2022/04/09 16:08:36;;;;;;;5.55;2.35;;;20.80;62.20;;;;;;7862533;28;20666;-54
2022/04/09 16:12:22;;;;;;;6.28;2.05;;;20.90;62.40;;;;;;7852645;28;20619;-53
2022/04/09 16:16:07;;;;;;;6.97;2.13;;;20.90;62.70;;;;;;7887342;28;20216;-53
2022/04/09 16:19:53;;;;;;;2.50;1.80;;;21.00;64.00;;;;;;7861513;28;20208;-55
2022/04/09 16:23:39;;;;;;;5.57;1.77;;;21.10;63.50;;;;;;7841078;28;20583;-54
2022/04/09 16:27:24;;;;;;;28.70;16.20;;;21.20;63.90;;;;;;7862171;28;20182;-53
2022/04/09 16:31:10;;;;;;;24.83;14.00;;;21.20;64.10;;;;;;7881720;28;20185;-53
2022/04/09 16:34:55;;;;;;;63.05;41.05;;;21.20;63.50;;;;;;7875250;28;20279;-54
2022/04/09 16:38:41;;;;;;;55.10;37.85;;;21.20;63.80;;;;;;7857929;28;20204;-52
2022/04/09 16:42:26;;;;;;;41.25;28.58;;;21.20;62.50;;;;;;7837195;28;20197;-53
2022/04/09 16:46:12;;;;;;;24.02;14.02;;;21.20;63.10;;;;;;7836960;28;20561;-53
2022/04/09 16:49:57;;;;;;;26.77;12.70;;;21.20;64.50;;;;;;7866727;28;20198;-53
2022/04/09 16:53:43;;;;;;;27.90;16.45;;;21.30;65.10;;;;;;7867374;28;20263;-55
2022/04/09 16:57:28;;;;;;;18.63;12.02;;;21.30;64.30;;;;;;7859954;28;20208;-53
2022/04/09 17:01:17;;;;;;;21.23;10.98;;;21.30;64.00;;;;;;7854792;28;20230;-56
2022/04/09 17:05:04;;;;;;;22.02;10.32;;;21.40;65.10;;;;;;7872780;28;20192;-52
2022/04/09 17:08:49;;;;;;;28.15;10.27;;;21.50;65.20;;;;;;7855933;28;20178;-53
2022/04/09 17:12:35;;;;;;;19.95;9.40;;;21.60;66.10;;;;;;7836813;28;20220;-53
2022/04/09 17:16:20;;;;;;;12.75;8.32;;;21.60;65.80;;;;;;7851388;28;20251;-53
2022/04/09 17:20:06;;;;;;;14.07;7.47;;;21.60;66.70;;;;;;7842739;28;20193;-54
2022/04/09 17:23:52;;;;;;;21.00;7.80;;;21.60;67.10;;;;;;7856790;28;20205;-53
2022/04/09 17:27:38;;;;;;;12.07;6.70;;;21.70;67.20;;;;;;7873592;28;20189;-54
2022/04/09 17:31:24;;;;;;;14.13;6.70;;;21.70;67.30;;;;;;7847944;28;20182;-55
2022/04/09 17:35:11;;;;;;;12.45;6.35;;;21.70;67.50;;;;;;7865326;28;20204;-53
2022/04/09 17:38:56;;;;;;;10.95;5.90;;;21.60;67.60;;;;;;7867430;28;20246;-53
2022/04/09 17:42:43;;;;;;;11.75;5.78;;;21.60;67.80;;;;;;7842180;28;20178;-53
2022/04/09 17:46:30;;;;;;;8.93;5.47;;;21.60;68.00;;;;;;7849895;28;20704;-55
2022/04/09 17:50:15;;;;;;;9.98;5.30;;;21.50;68.10;;;;;;7864768;28;20655;-53
2022/04/09 17:54:01;;;;;;;11.55;5.72;;;21.50;68.20;;;;;;7903596;28;20638;-53
2022/04/09 17:57:46;;;;;;;12.70;4.95;;;21.50;68.90;;;;;;7891023;28;20177;-56
2022/04/09 18:01:32;;;;;;;16.35;4.97;;;21.40;68.50;;;;;;7872854;28;20170;-55
2022/04/09 18:05:17;;;;;;;11.25;5.05;;;21.40;68.60;;;;;;7873008;28;20194;-53
2022/04/09 18:09:04;;;;;;;9.57;4.97;;;21.30;68.50;;;;;;7875639;28;20733;-53
2022/04/09 18:12:50;;;;;;;9.93;4.70;;;21.40;68.50;;;;;;7873454;28;20296;-53
2022/04/09 18:16:44;;;;;;;9.77;4.60;;;21.30;68.80;;;;;;7872262;28;20193;-53
2022/04/09 18:20:30;;;;;;;11.75;4.80;;;21.30;67.90;;;;;;7871545;28;20231;-55
2022/04/09 18:24:15;;;;;;;15.52;4.65;;;21.20;66.80;;;;;;7871958;28;20201;-54
2022/04/09 18:28:02;;;;;;;15.93;4.60;;;21.20;67.40;;;;;;7871907;28;20532;-53
2022/04/09 18:31:47;;;;;;;17.35;4.70;;;21.10;68.20;;;;;;7871232;28;20213;-54
2022/04/09 18:35:39;;;;;;;20.50;4.47;;;21.10;67.90;;;;;;7860600;28;20243;-51
2022/04/09 18:39:25;;;;;;;12.40;5.30;;;21.10;67.80;;;;;;7870086;28;20192;-51
2022/04/09 18:43:10;;;;;;;15.30;5.75;;;21.10;66.60;;;;;;7903435;28;20181;-54
2022/04/09 18:46:57;;;;;;;18.15;5.35;;;21.10;66.40;;;;;;7903642;28;20227;-51
2022/04/09 18:50:42;;;;;;;13.15;4.60;;;21.10;67.00;;;;;;7903142;28;20715;-53
2022/04/09 18:54:27;;;;;;;15.20;3.75;;;21.10;68.30;;;;;;7903401;28;20637;-52
2022/04/09 18:58:14;;;;;;;16.65;4.20;;;21.10;69.10;;;;;;7903425;28;20204;-52
2022/04/09 19:02:00;;;;;;;18.60;3.97;;;21.10;68.90;;;;;;7903050;28;20549;-53
2022/04/09 19:05:45;;;;;;;17.23;4.00;;;21.20;70.20;;;;;;7903001;28;20223;-53
2022/04/09 19:09:31;;;;;;;11.80;3.38;;;21.30;70.50;;;;;;7902818;28;20189;-53
2022/04/09 19:13:16;;;;;;;8.20;3.10;;;21.50;70.50;;;;;;7902981;28;20204;-53
2022/04/09 19:17:02;;;;;;;12.93;3.40;;;21.60;70.40;;;;;;7902798;28;20220;-53
2022/04/09 19:20:47;;;;;;;6.55;2.92;;;21.70;70.30;;;;;;7902504;28;20538;-54
2022/04/09 19:24:34;;;;;;;9.73;2.70;;;21.80;70.30;;;;;;7902652;28;20204;-52
2022/04/09 19:28:19;;;;;;;7.93;2.88;;;21.90;70.30;;;;;;7902544;28;20194;-55
2022/04/09 19:32:06;;;;;;;4.45;2.30;;;22.00;70.20;;;;;;7902043;28;20200;-52